sensor_id;sensor_type;location;lat;lon;timestamp;pressure;altitude;pressure_sealevel;temperature
39959;BMP280;25639;53.634;9.880;2022-11-23T00:02:13;152542.56;;;0.72
39959;BMP280;25639;53.634;9.880;2022-11-23T00:04:41;152543.81;;;0.72
39959;BMP280;25639;53.634;9.880;2022-11-23T00:07:06;152546.34;;;0.73
39959;BMP280;25639;53.634;9.880;2022-11-23T00:09:32;152546.34;;;0.73
39959;BMP280;25639;53.634;9.880;2022-11-23T00:11:57;152571.66;;;0.84
39959;BMP280;25639;53.634;9.880;2022-11-23T00:14:22;152574.22;;;0.85
39959;BMP280;25639;53.634;9.880;2022-11-23T00:16:56;152565.34;;;0.81
39959;BMP280;25639;53.634;9.880;2022-11-23T00:19:27;152565.34;;;0.81
39959;BMP280;25639;53.634;9.880;2022-11-23T00:22:02;152557.72;;;0.78
39959;BMP280;25639;53.634;9.880;2022-11-23T00:24:27;152547.59;;;0.74
39959;BMP280;25639;53.634;9.880;2022-11-23T00:26:52;152552.66;;;0.76
39959;BMP280;25639;53.634;9.880;2022-11-23T00:29:18;152561.53;;;0.80
39959;BMP280;25639;53.634;9.880;2022-11-23T00:31:43;152570.41;;;0.83
39959;BMP280;25639;53.634;9.880;2022-11-23T00:34:08;152562.78;;;0.80
39959;BMP280;25639;53.634;9.880;2022-11-23T00:36:42;152576.72;;;0.86
39959;BMP280;25639;53.634;9.880;2022-11-23T00:39:08;152572.94;;;0.84
39959;BMP280;25639;53.634;9.880;2022-11-23T00:41:33;152578.00;;;0.86
39959;BMP280;25639;53.634;9.880;2022-11-23T00:43:58;152584.31;;;0.89
39959;BMP280;25639;53.634;9.880;2022-11-23T00:46:25;152578.00;;;0.86
39959;BMP280;25639;53.634;9.880;2022-11-23T00:48:51;152594.44;;;0.93
39959;BMP280;25639;53.634;9.880;2022-11-23T00:51:27;152595.75;;;0.93
39959;BMP280;25639;53.634;9.880;2022-11-23T00:53:52;152571.66;;;0.84
39959;BMP280;25639;53.634;9.880;2022-11-23T00:56:19;152581.81;;;0.88
39959;BMP280;25639;53.634;9.880;2022-11-23T00:58:48;152586.88;;;0.90
39959;BMP280;25639;53.634;9.880;2022-11-23T01:01:27;152566.59;;;0.82
39959;BMP280;25639;53.634;9.880;2022-11-23T01:03:53;152579.28;;;0.87
39959;BMP280;25639;53.634;9.880;2022-11-23T01:06:23;152595.75;;;0.93
39959;BMP280;25639;53.634;9.880;2022-11-23T01:08:49;152574.22;;;0.85
39959;BMP280;25639;53.634;9.880;2022-11-23T01:11:15;152571.66;;;0.84
39959;BMP280;25639;53.634;9.880;2022-11-23T01:13:41;152574.22;;;0.85
39959;BMP280;25639;53.634;9.880;2022-11-23T01:16:13;152588.13;;;0.90
39959;BMP280;25639;53.634;9.880;2022-11-23T01:18:39;152600.81;;;0.95
39959;BMP280;25639;53.634;9.880;2022-11-23T01:21:07;152580.53;;;0.87
39959;BMP280;25639;53.634;9.880;2022-11-23T01:23:32;152589.38;;;0.91
39959;BMP280;25639;53.634;9.880;2022-11-23T01:26:08;152591.94;;;0.92
39959;BMP280;25639;53.634;9.880;2022-11-23T01:28:34;152600.81;;;0.95
39959;BMP280;25639;53.634;9.880;2022-11-23T01:31:03;152605.88;;;0.98
39959;BMP280;25639;53.634;9.880;2022-11-23T01:33:29;152613.47;;;1.01
39959;BMP280;25639;53.634;9.880;2022-11-23T01:35:54;152584.31;;;0.89
39959;BMP280;25639;53.634;9.880;2022-11-23T01:38:19;152585.56;;;0.89
39959;BMP280;25639;53.634;9.880;2022-11-23T01:40:44;152588.13;;;0.90
39959;BMP280;25639;53.634;9.880;2022-11-23T01:43:14;152603.31;;;0.97
39959;BMP280;25639;53.634;9.880;2022-11-23T01:45:52;152595.75;;;0.93
39959;BMP280;25639;53.634;9.880;2022-11-23T01:48:22;152593.19;;;0.92
39959;BMP280;25639;53.634;9.880;2022-11-23T01:50:50;152583.06;;;0.88
39959;BMP280;25639;53.634;9.880;2022-11-23T01:53:15;152584.31;;;0.89
39959;BMP280;25639;53.634;9.880;2022-11-23T01:55:41;152571.66;;;0.84
39959;BMP280;25639;53.634;9.880;2022-11-23T01:58:10;152597.00;;;0.94
39959;BMP280;25639;53.634;9.880;2022-11-23T02:00:36;152614.72;;;1.01
39959;BMP280;25639;53.634;9.880;2022-11-23T02:03:01;152631.22;;;1.08
39959;BMP280;25639;53.634;9.880;2022-11-23T02:05:33;152609.69;;;0.99
39959;BMP280;25639;53.634;9.880;2022-11-23T02:07:59;152624.84;;;1.05
39959;BMP280;25639;53.634;9.880;2022-11-23T02:10:25;152643.88;;;1.13
39959;BMP280;25639;53.634;9.880;2022-11-23T02:12:51;152629.97;;;1.07
39959;BMP280;25639;53.634;9.880;2022-11-23T02:15:17;152632.47;;;1.08
39959;BMP280;25639;53.634;9.880;2022-11-23T02:17:42;152641.34;;;1.12
39959;BMP280;25639;53.634;9.880;2022-11-23T02:20:08;152633.72;;;1.09
39959;BMP280;25639;53.634;9.880;2022-11-23T02:25:07;152641.34;;;1.12
39959;BMP280;25639;53.634;9.880;2022-11-23T02:27:35;152642.59;;;1.12
39959;BMP280;25639;53.634;9.880;2022-11-23T02:30:00;152608.41;;;0.99
39959;BMP280;25639;53.634;9.880;2022-11-23T02:32:26;152642.59;;;1.12
39959;BMP280;25639;53.634;9.880;2022-11-23T02:34:52;152627.41;;;1.06
39959;BMP280;25639;53.634;9.880;2022-11-23T02:37:17;152637.53;;;1.10
39959;BMP280;25639;53.634;9.880;2022-11-23T02:39:49;152648.94;;;1.15
39959;BMP280;25639;53.634;9.880;2022-11-23T02:42:15;152646.41;;;1.14
39959;BMP280;25639;53.634;9.880;2022-11-23T02:45:01;152643.88;;;1.13
39959;BMP280;25639;53.634;9.880;2022-11-23T02:47:29;152629.97;;;1.07
39959;BMP280;25639;53.634;9.880;2022-11-23T02:49:54;152636.28;;;1.10
39959;BMP280;25639;53.634;9.880;2022-11-23T02:52:20;152638.84;;;1.11
39959;BMP280;25639;53.634;9.880;2022-11-23T02:54:45;152660.31;;;1.20
39959;BMP280;25639;53.634;9.880;2022-11-23T02:57:10;152673.00;;;1.25
39959;BMP280;25639;53.634;9.880;2022-11-23T02:59:36;152633.72;;;1.09
39959;BMP280;25639;53.634;9.880;2022-11-23T03:02:01;152643.88;;;1.13
39959;BMP280;25639;53.634;9.880;2022-11-23T03:04:27;152662.88;;;1.21
39959;BMP280;25639;53.634;9.880;2022-11-23T03:06:52;152638.84;;;1.11
39959;BMP280;25639;53.634;9.880;2022-11-23T03:09:17;152659.06;;;1.19
39959;BMP280;25639;53.634;9.880;2022-11-23T03:11:42;152646.41;;;1.14
39959;BMP280;25639;53.634;9.880;2022-11-23T03:14:07;152671.75;;;1.24
39959;BMP280;25639;53.634;9.880;2022-11-23T03:16:33;152655.25;;;1.18
39959;BMP280;25639;53.634;9.880;2022-11-23T03:18:58;152667.94;;;1.23
39959;BMP280;25639;53.634;9.880;2022-11-23T03:21:23;152657.81;;;1.19
39959;BMP280;25639;53.634;9.880;2022-11-23T03:23:48;152688.22;;;1.31
39959;BMP280;25639;53.634;9.880;2022-11-23T03:26:14;152665.44;;;1.22
39959;BMP280;25639;53.634;9.880;2022-11-23T03:28:39;152689.47;;;1.31
39959;BMP280;25639;53.634;9.880;2022-11-23T03:31:04;152688.22;;;1.31
39959;BMP280;25639;53.634;9.880;2022-11-23T03:33:29;152689.47;;;1.31
39959;BMP280;25639;53.634;9.880;2022-11-23T03:35:54;152675.56;;;1.26
39959;BMP280;25639;53.634;9.880;2022-11-23T03:38:20;152673.00;;;1.25
39959;BMP280;25639;53.634;9.880;2022-11-23T03:40:45;152699.59;;;1.36
39959;BMP280;25639;53.634;9.880;2022-11-23T03:43:11;152708.47;;;1.39
39959;BMP280;25639;53.634;9.880;2022-11-23T03:45:36;152714.84;;;1.42
39959;BMP280;25639;53.634;9.880;2022-11-23T03:48:02;152713.53;;;1.41
39959;BMP280;25639;53.634;9.880;2022-11-23T03:50:27;152723.72;;;1.45
39959;BMP280;25639;53.634;9.880;2022-11-23T03:52:54;152702.16;;;1.37
39959;BMP280;25639;53.634;9.880;2022-11-23T03:55:19;152712.28;;;1.41
39959;BMP280;25639;53.634;9.880;2022-11-23T03:57:46;152717.34;;;1.43
39959;BMP280;25639;53.634;9.880;2022-11-23T04:00:11;152723.72;;;1.45
39959;BMP280;25639;53.634;9.880;2022-11-23T04:02:37;152719.91;;;1.44
39959;BMP280;25639;53.634;9.880;2022-11-23T04:05:02;152726.22;;;1.46
39959;BMP280;25639;53.634;9.880;2022-11-23T04:07:27;152749.03;;;1.56
39959;BMP280;25639;53.634;9.880;2022-11-23T04:09:52;152754.13;;;1.58
39959;BMP280;25639;53.634;9.880;2022-11-23T04:12:17;152765.50;;;1.62
39959;BMP280;25639;53.634;9.880;2022-11-23T04:14:43;152773.13;;;1.65
39959;BMP280;25639;53.634;9.880;2022-11-23T04:17:08;152789.63;;;1.72
39959;BMP280;25639;53.634;9.880;2022-11-23T04:19:33;152759.19;;;1.60
39959;BMP280;25639;53.634;9.880;2022-11-23T04:21:58;152770.56;;;1.64
39959;BMP280;25639;53.634;9.880;2022-11-23T04:24:23;152792.13;;;1.73
39959;BMP280;25639;53.634;9.880;2022-11-23T04:26:48;152779.44;;;1.68
39959;BMP280;25639;53.634;9.880;2022-11-23T04:29:14;152794.69;;;1.74
39959;BMP280;25639;53.634;9.880;2022-11-23T04:31:39;152813.69;;;1.82
39959;BMP280;25639;53.634;9.880;2022-11-23T04:34:04;152818.75;;;1.84
39959;BMP280;25639;53.634;9.880;2022-11-23T04:36:29;152806.06;;;1.79
39959;BMP280;25639;53.634;9.880;2022-11-23T04:38:55;152822.56;;;1.85
39959;BMP280;25639;53.634;9.880;2022-11-23T04:41:20;152823.81;;;1.86
39959;BMP280;25639;53.634;9.880;2022-11-23T04:43:46;152812.41;;;1.81
39959;BMP280;25639;53.634;9.880;2022-11-23T04:46:11;152841.56;;;1.93
39959;BMP280;25639;53.634;9.880;2022-11-23T04:48:36;152818.75;;;1.84
39959;BMP280;25639;53.634;9.880;2022-11-23T04:51:02;152831.41;;;1.89
39959;BMP280;25639;53.634;9.880;2022-11-23T04:53:27;152831.41;;;1.89
39959;BMP280;25639;53.634;9.880;2022-11-23T04:55:52;152830.16;;;1.88
39959;BMP280;25639;53.634;9.880;2022-11-23T04:58:17;152858.03;;;2.00
39959;BMP280;25639;53.634;9.880;2022-11-23T05:00:43;152837.78;;;1.92
39959;BMP280;25639;53.634;9.880;2022-11-23T05:03:08;152828.91;;;1.88
39959;BMP280;25639;53.634;9.880;2022-11-23T05:05:35;152839.03;;;1.92
39959;BMP280;25639;53.634;9.880;2022-11-23T05:08:00;152832.69;;;1.89
39959;BMP280;25639;53.634;9.880;2022-11-23T05:10:25;152833.97;;;1.90
39959;BMP280;25639;53.634;9.880;2022-11-23T05:12:51;152827.59;;;1.87
39959;BMP280;25639;53.634;9.880;2022-11-23T05:15:16;152826.34;;;1.87
39959;BMP280;25639;53.634;9.880;2022-11-23T05:17:41;152832.69;;;1.89
39959;BMP280;25639;53.634;9.880;2022-11-23T05:20:07;152816.22;;;1.83
39959;BMP280;25639;53.634;9.880;2022-11-23T05:22:32;152813.69;;;1.82
39959;BMP280;25639;53.634;9.880;2022-11-23T05:24:57;152842.84;;;1.94
39959;BMP280;25639;53.634;9.880;2022-11-23T05:27:22;152823.81;;;1.86
39959;BMP280;25639;53.634;9.880;2022-11-23T05:29:48;152820.03;;;1.84
39959;BMP280;25639;53.634;9.880;2022-11-23T05:32:13;152826.34;;;1.87
39959;BMP280;25639;53.634;9.880;2022-11-23T05:34:38;152828.91;;;1.88
39959;BMP280;25639;53.634;9.880;2022-11-23T05:37:03;152825.09;;;1.86
39959;BMP280;25639;53.634;9.880;2022-11-23T05:39:29;152825.09;;;1.86
39959;BMP280;25639;53.634;9.880;2022-11-23T05:41:54;152828.91;;;1.88
39959;BMP280;25639;53.634;9.880;2022-11-23T05:44:19;152835.22;;;1.90
39959;BMP280;25639;53.634;9.880;2022-11-23T05:46:44;152828.91;;;1.88
39959;BMP280;25639;53.634;9.880;2022-11-23T05:49:09;152804.81;;;1.78
39959;BMP280;25639;53.634;9.880;2022-11-23T05:51:35;152808.63;;;1.80
39959;BMP280;25639;53.634;9.880;2022-11-23T05:54:00;152839.03;;;1.92
39959;BMP280;25639;53.634;9.880;2022-11-23T05:56:25;152828.91;;;1.88
39959;BMP280;25639;53.634;9.880;2022-11-23T05:58:51;152818.75;;;1.84
39959;BMP280;25639;53.634;9.880;2022-11-23T06:01:16;152823.81;;;1.86
39959;BMP280;25639;53.634;9.880;2022-11-23T06:03:41;152812.41;;;1.81
39959;BMP280;25639;53.634;9.880;2022-11-23T06:06:06;152821.28;;;1.85
39959;BMP280;25639;53.634;9.880;2022-11-23T06:08:31;152847.91;;;1.96
39959;BMP280;25639;53.634;9.880;2022-11-23T06:10:59;152840.28;;;1.93
39959;BMP280;25639;53.634;9.880;2022-11-23T06:13:24;152823.81;;;1.86
39959;BMP280;25639;53.634;9.880;2022-11-23T06:15:49;152803.56;;;1.78
39959;BMP280;25639;53.634;9.880;2022-11-23T06:18:18;152827.59;;;1.87
39959;BMP280;25639;53.634;9.880;2022-11-23T06:20:43;152837.78;;;1.92
39959;BMP280;25639;53.634;9.880;2022-11-23T06:23:08;152833.97;;;1.90
39959;BMP280;25639;53.634;9.880;2022-11-23T06:25:33;152850.44;;;1.97
39959;BMP280;25639;53.634;9.880;2022-11-23T06:27:59;152832.69;;;1.89
39959;BMP280;25639;53.634;9.880;2022-11-23T06:30:25;152833.97;;;1.90
39959;BMP280;25639;53.634;9.880;2022-11-23T06:32:50;152836.47;;;1.91
39959;BMP280;25639;53.634;9.880;2022-11-23T06:35:16;152841.56;;;1.93
39959;BMP280;25639;53.634;9.880;2022-11-23T06:37:41;152837.78;;;1.92
39959;BMP280;25639;53.634;9.880;2022-11-23T06:40:06;152821.28;;;1.85
39959;BMP280;25639;53.634;9.880;2022-11-23T06:42:32;152828.91;;;1.88
39959;BMP280;25639;53.634;9.880;2022-11-23T06:44:57;152839.03;;;1.92
39959;BMP280;25639;53.634;9.880;2022-11-23T06:47:22;152850.44;;;1.97
39959;BMP280;25639;53.634;9.880;2022-11-23T06:49:47;152864.41;;;2.02
39959;BMP280;25639;53.634;9.880;2022-11-23T06:52:13;152865.66;;;2.03
39959;BMP280;25639;53.634;9.880;2022-11-23T06:54:38;152882.16;;;2.09
39959;BMP280;25639;53.634;9.880;2022-11-23T06:57:06;152873.28;;;2.06
39959;BMP280;25639;53.634;9.880;2022-11-23T06:59:31;152875.78;;;2.07
39959;BMP280;25639;53.634;9.880;2022-11-23T07:01:56;152882.16;;;2.09
39959;BMP280;25639;53.634;9.880;2022-11-23T07:04:22;152873.28;;;2.06
39959;BMP280;25639;53.634;9.880;2022-11-23T07:06:47;152883.41;;;2.10
39959;BMP280;25639;53.634;9.880;2022-11-23T07:09:12;152899.91;;;2.17
39959;BMP280;25639;53.634;9.880;2022-11-23T07:11:37;152898.59;;;2.16
39959;BMP280;25639;53.634;9.880;2022-11-23T07:14:02;152907.47;;;2.20
39959;BMP280;25639;53.634;9.880;2022-11-23T07:16:28;152926.53;;;2.27
39959;BMP280;25639;53.634;9.880;2022-11-23T07:18:53;152921.47;;;2.25
39959;BMP280;25639;53.634;9.880;2022-11-23T07:21:18;152936.66;;;2.32
39959;BMP280;25639;53.634;9.880;2022-11-23T07:23:43;152945.53;;;2.35
39959;BMP280;25639;53.634;9.880;2022-11-23T07:26:08;152934.09;;;2.31
39959;BMP280;25639;53.634;9.880;2022-11-23T07:28:34;152958.22;;;2.40
39959;BMP280;25639;53.634;9.880;2022-11-23T07:30:59;152954.41;;;2.39
39959;BMP280;25639;53.634;9.880;2022-11-23T07:33:24;152959.47;;;2.41
39959;BMP280;25639;53.634;9.880;2022-11-23T07:35:49;152965.84;;;2.43
39959;BMP280;25639;53.634;9.880;2022-11-23T07:38:15;152955.66;;;2.39
39959;BMP280;25639;53.634;9.880;2022-11-23T07:40:40;152954.41;;;2.39
39959;BMP280;25639;53.634;9.880;2022-11-23T07:43:05;152967.09;;;2.44
39959;BMP280;25639;53.634;9.880;2022-11-23T07:45:31;152962.03;;;2.42
39959;BMP280;25639;53.634;9.880;2022-11-23T07:47:57;152974.72;;;2.47
39959;BMP280;25639;53.634;9.880;2022-11-23T07:50:22;152983.59;;;2.51
39959;BMP280;25639;53.634;9.880;2022-11-23T07:52:48;152992.47;;;2.54
39959;BMP280;25639;53.634;9.880;2022-11-23T07:55:13;153011.50;;;2.62
39959;BMP280;25639;53.634;9.880;2022-11-23T07:57:38;153021.63;;;2.66
39959;BMP280;25639;53.634;9.880;2022-11-23T08:00:03;153011.50;;;2.62
39959;BMP280;25639;53.634;9.880;2022-11-23T08:02:29;153039.38;;;2.73
39959;BMP280;25639;53.634;9.880;2022-11-23T08:04:54;153015.31;;;2.63
39959;BMP280;25639;53.634;9.880;2022-11-23T08:07:19;153021.63;;;2.66
39959;BMP280;25639;53.634;9.880;2022-11-23T08:09:44;153039.38;;;2.73
39959;BMP280;25639;53.634;9.880;2022-11-23T08:12:10;153036.88;;;2.72
39959;BMP280;25639;53.634;9.880;2022-11-23T08:14:36;153031.78;;;2.70
39959;BMP280;25639;53.634;9.880;2022-11-23T08:17:01;153059.69;;;2.81
39959;BMP280;25639;53.634;9.880;2022-11-23T08:19:26;153077.44;;;2.89
39959;BMP280;25639;53.634;9.880;2022-11-23T08:21:51;153099.03;;;2.97
39959;BMP280;25639;53.634;9.880;2022-11-23T08:24:17;153086.31;;;2.92
39959;BMP280;25639;53.634;9.880;2022-11-23T08:26:42;153083.78;;;2.91
39959;BMP280;25639;53.634;9.880;2022-11-23T08:29:07;153086.31;;;2.92
39959;BMP280;25639;53.634;9.880;2022-11-23T08:31:32;153099.03;;;2.97
39959;BMP280;25639;53.634;9.880;2022-11-23T08:33:57;153104.09;;;2.99
39959;BMP280;25639;53.634;9.880;2022-11-23T08:36:23;153125.66;;;3.08
39959;BMP280;25639;53.634;9.880;2022-11-23T08:38:48;153124.34;;;3.08
39959;BMP280;25639;53.634;9.880;2022-11-23T08:41:15;153158.63;;;3.21
39959;BMP280;25639;53.634;9.880;2022-11-23T08:43:44;153140.88;;;3.14
39959;BMP280;25639;53.634;9.880;2022-11-23T08:46:09;153154.81;;;3.20
39959;BMP280;25639;53.634;9.880;2022-11-23T08:48:34;153157.38;;;3.21
39959;BMP280;25639;53.634;9.880;2022-11-23T08:50:59;153178.94;;;3.30
39959;BMP280;25639;53.634;9.880;2022-11-23T08:53:25;153168.81;;;3.26
39959;BMP280;25639;53.634;9.880;2022-11-23T08:55:50;153186.56;;;3.33
39959;BMP280;25639;53.634;9.880;2022-11-23T08:58:15;153201.78;;;3.39
39959;BMP280;25639;53.634;9.880;2022-11-23T09:00:41;153206.84;;;3.41
39959;BMP280;25639;53.634;9.880;2022-11-23T09:03:06;153209.41;;;3.42
39959;BMP280;25639;53.634;9.880;2022-11-23T09:05:31;153239.88;;;3.54
39959;BMP280;25639;53.634;9.880;2022-11-23T09:07:59;153237.31;;;3.53
39959;BMP280;25639;53.634;9.880;2022-11-23T09:10:25;153253.81;;;3.60
39959;BMP280;25639;53.634;9.880;2022-11-23T09:12:50;153271.59;;;3.67
39959;BMP280;25639;53.634;9.880;2022-11-23T09:15:15;153290.63;;;3.75
39959;BMP280;25639;53.634;9.880;2022-11-23T09:17:41;153318.53;;;3.86
39959;BMP280;25639;53.634;9.880;2022-11-23T09:20:06;153328.72;;;3.90
39959;BMP280;25639;53.634;9.880;2022-11-23T09:22:32;153355.38;;;4.01
39959;BMP280;25639;53.634;9.880;2022-11-23T09:24:57;153352.81;;;4.00
39959;BMP280;25639;53.634;9.880;2022-11-23T09:27:29;153369.34;;;4.07
39959;BMP280;25639;53.634;9.880;2022-11-23T09:29:54;153394.75;;;4.17
39959;BMP280;25639;53.634;9.880;2022-11-23T09:32:20;153403.63;;;4.20
39959;BMP280;25639;53.634;9.880;2022-11-23T09:34:45;153402.34;;;4.20
39959;BMP280;25639;53.634;9.880;2022-11-23T09:37:11;153426.47;;;4.30
39959;BMP280;25639;53.634;9.880;2022-11-23T09:39:36;153437.88;;;4.34
39959;BMP280;25639;53.634;9.880;2022-11-23T09:44:40;153445.53;;;4.37
39959;BMP280;25639;53.634;9.880;2022-11-23T09:49:49;153468.38;;;4.47
39959;BMP280;25639;53.634;9.880;2022-11-23T09:52:19;153477.25;;;4.50
39959;BMP280;25639;53.634;9.880;2022-11-23T09:54:46;153510.31;;;4.64
39959;BMP280;25639;53.634;9.880;2022-11-23T09:57:13;153557.28;;;4.83
39959;BMP280;25639;53.634;9.880;2022-11-23T09:59:41;153585.25;;;4.94
39959;BMP280;25639;53.634;9.880;2022-11-23T10:02:13;153601.75;;;5.01
39959;BMP280;25639;53.634;9.880;2022-11-23T10:04:41;153580.19;;;4.92
39959;BMP280;25639;53.634;9.880;2022-11-23T10:07:10;153587.78;;;4.95
39959;BMP280;25639;53.634;9.880;2022-11-23T10:09:43;153562.41;;;4.85
39959;BMP280;25639;53.634;9.880;2022-11-23T10:19:44;153549.69;;;4.80
39959;BMP280;25639;53.634;9.880;2022-11-23T10:22:18;153585.25;;;4.94
39959;BMP280;25639;53.634;9.880;2022-11-23T10:24:47;153582.69;;;4.93
39959;BMP280;25639;53.634;9.880;2022-11-23T10:27:15;153608.13;;;5.03
39959;BMP280;25639;53.634;9.880;2022-11-23T10:29:42;153622.09;;;5.09
39959;BMP280;25639;53.634;9.880;2022-11-23T10:32:14;153656.41;;;5.23
39959;BMP280;25639;53.634;9.880;2022-11-23T10:34:45;153689.41;;;5.36
39959;BMP280;25639;53.634;9.880;2022-11-23T10:37:12;153700.88;;;5.41
39959;BMP280;25639;53.634;9.880;2022-11-23T10:39:38;153700.88;;;5.41
39959;BMP280;25639;53.634;9.880;2022-11-23T10:42:11;153718.66;;;5.48
39959;BMP280;25639;53.634;9.880;2022-11-23T10:44:38;153712.28;;;5.45
39959;BMP280;25639;53.634;9.880;2022-11-23T10:47:07;153705.97;;;5.43
39959;BMP280;25639;53.634;9.880;2022-11-23T10:49:33;153717.41;;;5.47
39959;BMP280;25639;53.634;9.880;2022-11-23T10:52:00;153707.22;;;5.43
39959;BMP280;25639;53.634;9.880;2022-11-23T10:56:55;153679.28;;;5.32
39959;BMP280;25639;53.634;9.880;2022-11-23T11:01:59;153714.84;;;5.46
39959;BMP280;25639;53.634;9.880;2022-11-23T11:04:25;153732.66;;;5.53
39959;BMP280;25639;53.634;9.880;2022-11-23T11:06:51;153731.38;;;5.53
39959;BMP280;25639;53.634;9.880;2022-11-23T11:09:17;153749.19;;;5.60
39959;BMP280;25639;53.634;9.880;2022-11-23T11:11:47;153755.50;;;5.63
39959;BMP280;25639;53.634;9.880;2022-11-23T11:16:47;153738.97;;;5.56
39959;BMP280;25639;53.634;9.880;2022-11-23T11:19:20;153707.22;;;5.43
39959;BMP280;25639;53.634;9.880;2022-11-23T11:21:46;153716.13;;;5.47
39959;BMP280;25639;53.634;9.880;2022-11-23T11:24:19;153718.66;;;5.48
39959;BMP280;25639;53.634;9.880;2022-11-23T11:26:49;153737.72;;;5.56
39959;BMP280;25639;53.634;9.880;2022-11-23T11:29:23;153753.00;;;5.62
39959;BMP280;25639;53.634;9.880;2022-11-23T11:34:33;153783.47;;;5.74
39959;BMP280;25639;53.634;9.880;2022-11-23T11:39:48;153803.81;;;5.82
39959;BMP280;25639;53.634;9.880;2022-11-23T11:42:16;153824.19;;;5.90
39959;BMP280;25639;53.634;9.880;2022-11-23T11:44:42;153822.88;;;5.90
39959;BMP280;25639;53.634;9.880;2022-11-23T11:47:18;153844.53;;;5.99
39959;BMP280;25639;53.634;9.880;2022-11-23T11:49:46;153850.94;;;6.01
39959;BMP280;25639;53.634;9.880;2022-11-23T11:52:20;153839.47;;;5.97
39959;BMP280;25639;53.634;9.880;2022-11-23T11:55:21;153831.78;;;5.93
39959;BMP280;25639;53.634;9.880;2022-11-23T11:57:50;153825.44;;;5.91
39959;BMP280;25639;53.634;9.880;2022-11-23T12:00:16;153821.63;;;5.89
39959;BMP280;25639;53.634;9.880;2022-11-23T12:02:54;153840.72;;;5.97
39959;BMP280;25639;53.634;9.880;2022-11-23T12:05:23;153834.34;;;5.95
39959;BMP280;25639;53.634;9.880;2022-11-23T12:10:27;153811.47;;;5.85
39959;BMP280;25639;53.634;9.880;2022-11-23T12:12:53;153835.59;;;5.95
39959;BMP280;25639;53.634;9.880;2022-11-23T12:15:20;153831.78;;;5.93
39959;BMP280;25639;53.634;9.880;2022-11-23T12:22:54;153856.00;;;6.03
39959;BMP280;25639;53.634;9.880;2022-11-23T12:25:35;153850.94;;;6.01
39959;BMP280;25639;53.634;9.880;2022-11-23T12:30:35;153845.84;;;5.99
39959;BMP280;25639;53.634;9.880;2022-11-23T12:33:13;153872.53;;;6.10
39959;BMP280;25639;53.634;9.880;2022-11-23T12:35:47;153885.22;;;6.15
39959;BMP280;25639;53.634;9.880;2022-11-23T12:49:13;153936.09;;;6.36
39959;BMP280;25639;53.634;9.880;2022-11-23T12:51:47;153956.47;;;6.44
39959;BMP280;25639;53.634;9.880;2022-11-23T12:54:36;153962.81;;;6.46
39959;BMP280;25639;53.634;9.880;2022-11-23T13:00:02;153942.44;;;6.38
39959;BMP280;25639;53.634;9.880;2022-11-23T13:02:41;153931.03;;;6.34
39959;BMP280;25639;53.634;9.880;2022-11-23T13:17:42;153961.56;;;6.46
39959;BMP280;25639;53.634;9.880;2022-11-23T13:22:46;154004.78;;;6.63
39959;BMP280;25639;53.634;9.880;2022-11-23T13:30:22;154026.41;;;6.72
39959;BMP280;25639;53.634;9.880;2022-11-23T13:40:40;154008.59;;;6.65
39959;BMP280;25639;53.634;9.880;2022-11-23T13:45:34;154004.78;;;6.63
39959;BMP280;25639;53.634;9.880;2022-11-23T13:53:20;154014.97;;;6.67
39959;BMP280;25639;53.634;9.880;2022-11-23T13:55:46;153983.19;;;6.55
39959;BMP280;25639;53.634;9.880;2022-11-23T14:00:58;154020.06;;;6.70
39959;BMP280;25639;53.634;9.880;2022-11-23T14:08:52;154003.50;;;6.63
39959;BMP280;25639;53.634;9.880;2022-11-23T14:11:19;153971.72;;;6.50
39959;BMP280;25639;53.634;9.880;2022-11-23T14:13:53;153993.34;;;6.59
39959;BMP280;25639;53.634;9.880;2022-11-23T14:19:33;153986.97;;;6.56
39959;BMP280;25639;53.634;9.880;2022-11-23T14:22:06;153969.16;;;6.49
39959;BMP280;25639;53.634;9.880;2022-11-23T14:24:41;153959.00;;;6.45
39959;BMP280;25639;53.634;9.880;2022-11-23T14:27:18;153983.19;;;6.55
39959;BMP280;25639;53.634;9.880;2022-11-23T14:32:38;153975.53;;;6.52
39959;BMP280;25639;53.634;9.880;2022-11-23T14:35:27;153948.84;;;6.41
39959;BMP280;25639;53.634;9.880;2022-11-23T14:38:02;153941.19;;;6.38
39959;BMP280;25639;53.634;9.880;2022-11-23T14:40:36;153938.69;;;6.37
39959;BMP280;25639;53.634;9.880;2022-11-23T14:43:09;153961.56;;;6.46
39959;BMP280;25639;53.634;9.880;2022-11-23T14:45:37;153957.72;;;6.44
39959;BMP280;25639;53.634;9.880;2022-11-23T14:48:22;153969.16;;;6.49
39959;BMP280;25639;53.634;9.880;2022-11-23T14:53:45;153956.47;;;6.44
39959;BMP280;25639;53.634;9.880;2022-11-23T14:56:32;153941.19;;;6.38
39959;BMP280;25639;53.634;9.880;2022-11-23T14:59:01;153929.78;;;6.33
39959;BMP280;25639;53.634;9.880;2022-11-23T15:01:27;153919.56;;;6.29
39959;BMP280;25639;53.634;9.880;2022-11-23T15:03:56;153899.25;;;6.21
39959;BMP280;25639;53.634;9.880;2022-11-23T15:06:23;153864.91;;;6.07
39959;BMP280;25639;53.634;9.880;2022-11-23T15:09:05;153863.66;;;6.06
39959;BMP280;25639;53.634;9.880;2022-11-23T15:11:32;153867.41;;;6.08
39959;BMP280;25639;53.634;9.880;2022-11-23T15:13:59;153863.66;;;6.06
39959;BMP280;25639;53.634;9.880;2022-11-23T15:16:27;153836.94;;;5.96
39959;BMP280;25639;53.634;9.880;2022-11-23T15:18:53;153820.34;;;5.89
39959;BMP280;25639;53.634;9.880;2022-11-23T15:21:20;153825.44;;;5.91
39959;BMP280;25639;53.634;9.880;2022-11-23T15:23:46;153801.31;;;5.81
39959;BMP280;25639;53.634;9.880;2022-11-23T15:26:17;153766.97;;;5.67
39959;BMP280;25639;53.634;9.880;2022-11-23T15:28:44;153754.25;;;5.62
39959;BMP280;25639;53.634;9.880;2022-11-23T15:31:28;153736.47;;;5.55
39959;BMP280;25639;53.634;9.880;2022-11-23T15:33:57;153714.84;;;5.46
39959;BMP280;25639;53.634;9.880;2022-11-23T15:36:27;153717.41;;;5.47
39959;BMP280;25639;53.634;9.880;2022-11-23T15:38:53;153681.84;;;5.33
39959;BMP280;25639;53.634;9.880;2022-11-23T15:41:19;153694.50;;;5.38
39959;BMP280;25639;53.634;9.880;2022-11-23T15:43:51;153703.41;;;5.42
39959;BMP280;25639;53.634;9.880;2022-11-23T15:46:17;153702.13;;;5.41
39959;BMP280;25639;53.634;9.880;2022-11-23T15:48:46;153669.13;;;5.28
39959;BMP280;25639;53.634;9.880;2022-11-23T15:51:28;153664.03;;;5.26
39959;BMP280;25639;53.634;9.880;2022-11-23T15:53:54;153652.59;;;5.21
39959;BMP280;25639;53.634;9.880;2022-11-23T15:56:28;153644.94;;;5.18